Weather observations for the past three days for
Rock Springs, Rock Springs-Sweetwater County Airport
Metric (Imperial)
Date Time (mdt) Wind (kph) Vis. (km) Weather Sky Cond. Temperature (ºC) Relative Humidity Wind Chill (°C) Heat Index (°C) Pressure Precipitation (cm)
Air Dwpt 6 hour altimeter (cm) sea level (mb) 1 hr 3 hr 6 hr
Max. Min.
09 18:54 NE 37 G 50 16.09 Overcast and Breezy OVC100 10.6 0 48% 76.56 1016.7
09 17:54 NW 37 G 54 16.09 Overcast and Breezy OVC100 16.7 -9.4 20 16.1 16% 76.4 1013.1
09 16:54 W 46 G 70 16.09 Fair and Windy CLR 19.4 -9.4 13% 76.35 1011.5
09 15:54 W 39 G 63 16.09 Fair and Breezy CLR 19.4 -12.2 11% 76.35 1011.4
09 14:54 W 39 G 61 16.09 A Few Clouds and Breezy FEW110 19.4 -10.6 12% 76.38 1011.5
09 13:54 SW 33 G 57 16.09 Fair and Breezy CLR 18.9 -8.9 14% 76.4 1011.7
09 12:54 W 44 G 56 16.09 Fair and Windy CLR 17.8 -7.8 17% 76.45 1012.7
09 11:54 W 31 G 50 16.09 Fair CLR 16.7 -6.7 16.7 7.2 20% 76.45 1013.1
09 10:54 NW 13 G 37 16.09 Fair CLR 15.6 -6.7 21% 76.48 1013.5
09 09:54 W 26 G 44 16.09 Fair CLR 13.9 -6.1 25% 76.48 1013.6
09 08:54 W 31 G 43 16.09 Fair CLR 11.7 -6.1 28% 76.48 1013.7
09 07:54 W 24 16.09 Fair CLR 9.4 -6.1 33% 7 76.48 1013.5
09 06:54 SW 24 16.09 Fair CLR 7.2 -5 42% 4 76.4 1012.9
09 05:54 SW 22 16.09 Fair CLR 7.2 -4.4 11.7 6.7 44% 4 76.35 1011.7
09 04:54 SW 17 16.09 Fair CLR 8.3 -6.1 36% 6 76.3 1010.9
09 03:54 SW 17 16.09 Fair CLR 8.9 -6.1 34% 7 76.3 1010.3
09 02:54 W 19 16.09 Fair CLR 10 -4.4 36% 8 76.3 1010.3
09 01:54 W 20 16.09 Fair CLR 10.6 -3.9 36% 76.3 1010.4
09 00:54 W 22 16.09 Fair CLR 11.1 -3.3 37% 76.3 1010.9
08 23:54 W 20 16.09 Fair CLR 11.1 -3.3 19.4 11.1 37% 76.33 1011.4
08 22:54 W 22 16.09 Fair CLR 12.2 -3.3 34% 76.33 1011.9
08 21:54 W 28 16.09 Fair CLR 13.9 -3.3 30% 76.33 1011.6
08 20:54 W 33 G 48 16.09 Fair and Breezy CLR 14.4 -4.4 27% 76.25 1011.3
08 19:54 W 33 G 54 16.09 Fair and Breezy CLR 16.7 -5 22% 76.2 1010.6
08 18:54 W 41 G 61 16.09 Fair and Breezy CLR 17.8 -5.6 20% 76.17 1010.5
08 17:54 W 33 G 63 16.09 Fair and Breezy CLR 19.4 -7.2 21.1 15.6 16% 76.17 1010.5
08 16:54 SW 41 G 56 16.09 Fair and Breezy CLR 20.6 -6.7 15% 76.17 1009.9
08 15:54 W 20 G 46 16.09 Fair CLR 20.6 -5 17% 76.2 1010.2
08 14:54 W 26 G 48 16.09 Fair CLR 20 -6.1 17% 76.28 1010.9
08 13:54 W 20 G 41 16.09 Fair CLR 18.9 -4.4 20% 76.3 1011.0
08 12:54 W 28 G 41 16.09 Fair CLR 17.8 -3.3 24% 76.35 1012.3
08 11:54 W 17 G 35 16.09 Fair CLR 16.1 -1.7 16.1 2.2 30% 76.43 1013.0
08 10:54 W 15 16.09 Fair CLR 12.8 0 42% 76.45 1014.0
08 09:54 S 7 16.09 Fair CLR 11.1 1.1 50% 76.45 1014.2
08 08:54 E 7 16.09 Fair CLR 8.9 2.2 63% 8 76.48 1014.4
08 07:54 E 7 16.09 Fair CLR 6.1 2.8 80% 5 76.45 1014.5
08 06:54 S 11 16.09 Fair CLR 3.9 1.7 86% 1 76.43 1014.4
08 05:54 E 7 16.09 Fair CLR 2.2 0.6 10 2.2 89% 0 76.43 1014.3
08 04:54 NE 13 16.09 Fair CLR 3.3 1.1 86% 0 76.43 1014.1
08 03:54 E 11 16.09 Fair CLR 3.3 1.7 89% 1 76.38 1013.5
08 02:54 NE 17 16.09 Fair CLR 5 -2.2 60% 2 76.38 1013.0
08 01:54 NE 7 16.09 Fair CLR 8.3 -5.6 37% 7 76.35 1011.7
08 00:54 NE 9 16.09 Fair CLR 7.8 -5.6 38% 6 76.35 1012.2
07 23:54 W 6 16.09 Fair CLR 8.9 -5 17.2 8.3 37% 76.33 1012.2
07 22:54 W 24 16.09 Fair CLR 10.6 -5.6 32% 76.3 1011.6
07 21:54 W 30 16.09 Fair CLR 11.7 -6.7 27% 76.3 1012.0
07 20:54 W 33 G 48 16.09 Fair and Breezy CLR 12.8 -5.6 28% 76.25 1011.5
07 19:54 W 33 G 50 16.09 Fair and Breezy CLR 14.4 -3.9 28% 76.2 1010.7
07 18:54 W 43 G 57 16.09 A Few Clouds and Windy FEW100 15.6 -2.8 28% 76.2 1010.4
07 17:54 W 44 G 63 16.09 A Few Clouds and Windy FEW100 17.2 -3.3 18.9 14.4 25% 76.17 1009.9
07 16:54 W 43 G 65 16.09 Fair and Windy CLR 17.2 -7.2 18% 76.17 1009.9
07 15:54 W 41 G 63 16.09 A Few Clouds and Breezy FEW085 17.2 -4.4 23% 76.2 1010.3
07 14:54 W 39 G 52 16.09 Partly Cloudy and Breezy SCT080 SCT110 18.3 -3.3 23% 76.23 1010.7
07 13:54 W 35 G 57 16.09 Fair and Breezy CLR 18.9 -1.1 26% 76.28 1010.9
07 12:54 W 31 G 48 16.09 Fair CLR 16.7 -2.2 28% 76.33 1012.3
07 11:54 W 37 G 52 16.09 A Few Clouds and Breezy FEW110 14.4 0.6 16.1 6.1 39% 76.4 1013.4
07 10:54 W 39 G 59 16.09 Fair and Breezy CLR 14.4 1.1 41% 76.4 1013.7
07 09:54 W 19 16.09 Fair CLR 10 0 50% 8 76.5 1016.0
07 08:54 W 20 16.09 Fair CLR 8.3 -1.7 50% 5 76.5 1016.5
07 07:54 SW 19 16.09 A Few Clouds FEW075 7.2 -2.8 49% 4 76.5 1016.1
07 06:54 W 19 16.09 Fair CLR 7.2 -3.9 46% 4 76.45 1015.3
07 05:54 W 24 16.09 A Few Clouds FEW100 6.7 -3.9 7.2 5.6 47% 3 76.43 1015.7
07 04:54 SW 19 16.09 Fair CLR 6.1 -3.9 49% 3 76.43 1015.9
07 03:54 W 24 16.09 Fair CLR 7.2 -3.9 46% 4 76.45 1016.3
07 02:54 SW 22 16.09 Fair CLR 6.1 -3.9 49% 3 76.48 1016.9
07 01:54 W 24 16.09 Fair CLR 6.1 -3.9 49% 2 76.5 1017.5
07 00:54 W 31 16.09 Fair CLR 6.1 -3.3 51% 2 76.5 1018.3
06 23:54 W 37 16.09 Fair and Breezy CLR 7.2 -3.9 10 6.1 46% 3 76.5 1018.2
06 22:54 W 30 G 44 16.09 Fair CLR 7.2 -3.9 46% 3 76.48 1018.2
06 21:54 W 26 16.09 Fair CLR 7.2 -3.3 48% 4 76.48 1018.4
06 20:54 W 26 16.09 Fair CLR 8.3 -3.9 42% 5 76.4 1017.9
06 19:54 W 28 16.09 Fair CLR 10 -4.4 36% 7 76.4 1017.5
Date Time (mdt) Wind (kph) Vis. (km) Weather Sky Cond. Air Dwpt Max. Min. Relative Humidity Wind Chill (°C) Heat Index (°C) altimeter (cm) sea level (mb) 1 hr 3 hr 6 hr
6 hour
Temperature (ºC) Pressure Precipitation (cm)